Skip Navigation Links Skip Navigation Links

Current Weather

San Francisco International, San Francisco

For information only: do not use for flight planning or navigation.
Latest weather
Observation time Thursday, November 21, 2019 1:56 PM PST
Local time Thursday, November 21, 2019 2:29 PM PST
Flight conditions Visual Meteorological Conditions
Winds
Wind direction East (90°)
Wind speed 6 mph
Visibility 10 mi.
Sky condition
Ceiling unlimited
Cloud layer few clouds 3,500 ft.
Temperature 61°F
Dewpoint 47°F
Altimeter 29.88 in.Hg
Derived measurements
Relative humidity 60%
Density altitude 347 ft.
Sea-level pressure 29.88 in.Hg
Remarks
Automated weather observing station with precipitation discriminator.
METAR KSFO 212156Z 09005KT 10SM FEW035 16/08 A2988 RMK AO2 SLP119 T01610083

Settings

Location code

InnerDrive.Weather 4.0.6770.0 Release CLR 4.0.30319.42000
Copyright ©2018 Inner Drive Technology. All rights reserved. Portions Copyright ©1986-2018 David Braverman.

Find weather

Site navigation


Skip Navigation Links

Place info

Page info

PayPal - The safer, easier way to pay online!

Return home.

Copyright ©2019 Inner Drive Technology. Purveyors of fine, hand-crafted computer software. Page printed 2019-11-21T22:29:07 UTC.